Time;durP1;ratioP1;P1;durP2;ratioP2;P2;SDS_P1;SDS_P2;PMS_P1;PMS_P2;Temp;Humidity;BMP_temperature;BMP_pressure;BME280_temperature;BME280_humidity;BME280_pressure;Samples;Min_cycle;Max_cycle;Signal;HPM_P1;HPM_P2
2022/08/19 00:00:09;;;;;;;13.65;7.13;;;15.60;99.90;;;;;;4939658;29;20395;-92
2022/08/19 00:02:35;;;;;;;12.10;6.85;;;15.70;99.90;;;;;;4945455;29;20063;-94
2022/08/19 00:05:02;;;;;;;13.52;7.65;;;15.50;99.90;;;;;;4940324;29;20138;-94
2022/08/19 00:07:27;;;;;;;15.20;7.55;;;15.50;99.90;;;;;;4936294;29;20043;-93
2022/08/19 00:09:53;;;;;;;14.40;7.68;;;15.50;99.90;;;;;;4937264;29;20043;-93
2022/08/19 00:12:19;;;;;;;14.23;7.75;;;15.40;99.90;;;;;;4954808;29;20090;-93
2022/08/19 00:14:45;;;;;;;13.70;7.43;;;15.50;99.90;;;;;;4938254;29;20474;-93
2022/08/19 00:17:10;;;;;;;14.27;7.57;;;15.70;99.90;;;;;;4954207;29;20470;-93
2022/08/19 00:19:36;;;;;;;15.30;7.97;;;15.30;99.90;;;;;;4954374;29;20043;-94
2022/08/19 00:22:03;;;;;;;14.10;8.60;;;15.30;99.90;;;;;;4936392;29;20079;-93
2022/08/19 00:24:29;;;;;;;14.43;8.05;;;15.30;99.90;;;;;;4957567;29;20050;-93
2022/08/19 00:26:56;;;;;;;16.10;8.90;;;15.30;99.90;;;;;;4940599;29;20053;-93
2022/08/19 00:29:24;;;;;;;19.98;9.13;;;15.30;99.90;;;;;;4939620;29;20058;-94
2022/08/19 00:31:54;;;;;;;15.15;8.82;;;15.30;99.90;;;;;;4940746;29;20051;-93
2022/08/19 00:34:21;;;;;;;17.00;9.55;;;15.20;99.90;;;;;;4957328;29;20051;-93
2022/08/19 00:36:48;;;;;;;14.40;8.27;;;15.20;99.90;;;;;;4940562;29;20047;-92
2022/08/19 00:39:15;;;;;;;15.60;8.23;;;15.20;99.90;;;;;;4959192;29;20074;-93
2022/08/19 00:41:42;;;;;;;15.43;8.80;;;15.10;99.90;;;;;;4964175;29;20047;-93
2022/08/19 00:44:10;;;;;;;13.95;8.45;;;15.40;99.90;;;;;;4949920;29;20055;-92
2022/08/19 00:46:38;;;;;;;16.27;9.55;;;15.10;99.90;;;;;;4960568;29;20078;-93
2022/08/19 00:49:19;;;;;;;15.30;9.25;;;15.10;99.90;;;;;;4957461;29;20075;-93
2022/08/19 00:51:48;;;;;;;18.30;9.45;;;15.10;99.90;;;;;;4960086;29;20045;-92
2022/08/19 00:54:14;;;;;;;18.50;9.48;;;15.10;99.90;;;;;;4949518;29;20039;-92
2022/08/19 00:56:41;;;;;;;17.88;9.23;;;15.10;99.90;;;;;;4940950;29;20150;-93
2022/08/19 00:59:09;;;;;;;16.27;9.75;;;15.10;99.90;;;;;;4939864;29;20182;-94
2022/08/19 01:01:37;;;;;;;18.92;11.13;;;15.10;99.90;;;;;;4956854;28;20115;-94
2022/08/19 01:04:03;;;;;;;19.40;10.75;;;15.50;99.90;;;;;;4944181;29;20460;-94
2022/08/19 01:06:32;;;;;;;18.30;10.57;;;15.10;99.90;;;;;;4957692;28;20051;-94
2022/08/19 01:08:58;;;;;;;17.33;9.80;;;15.10;99.90;;;;;;4957519;29;20039;-94
2022/08/19 01:11:28;;;;;;;19.13;11.20;;;15.10;99.90;;;;;;4957207;29;20047;-93
2022/08/19 01:13:54;;;;;;;16.92;9.70;;;15.10;99.90;;;;;;4945648;29;20097;-93
2022/08/19 01:16:23;;;;;;;18.73;10.48;;;15.10;99.90;;;;;;4940734;29;20055;-93
2022/08/19 01:18:49;;;;;;;18.55;10.38;;;15.10;99.90;;;;;;4939765;29;20071;-94
2022/08/19 01:21:25;;;;;;;17.60;10.07;;;15.10;99.90;;;;;;4945575;29;20074;-94
2022/08/19 01:23:50;;;;;;;18.13;9.93;;;15.10;99.90;;;;;;4957057;29;20492;-94
2022/08/19 01:26:21;;;;;;;18.52;10.50;;;15.10;99.90;;;;;;4939081;29;20058;-93
2022/08/19 01:28:50;;;;;;;18.75;10.40;;;15.20;99.90;;;;;;4956793;29;20079;-93
2022/08/19 01:31:23;;;;;;;20.30;10.80;;;15.00;99.90;;;;;;4952705;28;20070;-93
2022/08/19 01:33:49;;;;;;;16.60;10.00;;;15.10;99.90;;;;;;4957751;28;20042;-93
2022/08/19 01:36:25;;;;;;;16.65;10.25;;;15.00;99.90;;;;;;4975904;28;20112;-93
2022/08/19 01:38:51;;;;;;;16.65;9.45;;;14.90;99.90;;;;;;4957945;28;20043;-93
2022/08/19 01:41:23;;;;;;;19.17;10.05;;;15.00;99.90;;;;;;4958304;28;20100;-94
2022/08/19 01:43:50;;;;;;;18.67;10.25;;;15.00;99.90;;;;;;4958635;28;20051;-93
2022/08/19 01:46:16;;;;;;;18.77;10.68;;;14.90;99.90;;;;;;4957522;28;20046;-92
2022/08/19 01:48:43;;;;;;;18.55;10.65;;;14.90;99.90;;;;;;4975741;28;20054;-94
2022/08/19 01:51:10;;;;;;;17.85;9.85;;;14.80;99.90;;;;;;4975908;28;20043;-92
2022/08/19 01:53:36;;;;;;;17.08;9.98;;;14.80;99.90;;;;;;4959833;28;20054;-93
2022/08/19 01:56:02;;;;;;;17.30;9.93;;;14.70;99.90;;;;;;4975429;28;20042;-92
2022/08/19 01:58:33;;;;;;;19.05;11.05;;;14.70;99.90;;;;;;4975128;28;20089;-94
2022/08/19 02:00:59;;;;;;;17.75;10.07;;;14.70;99.90;;;;;;4976824;28;20101;-93
2022/08/19 02:03:24;;;;;;;18.88;10.52;;;14.70;99.90;;;;;;4973989;28;20043;-92
2022/08/19 02:05:56;;;;;;;16.50;9.50;;;14.70;99.90;;;;;;4957991;28;20050;-94
2022/08/19 02:08:21;;;;;;;19.02;9.93;;;14.70;99.90;;;;;;4957004;28;20105;-93
2022/08/19 02:10:47;;;;;;;17.00;9.73;;;14.70;99.90;;;;;;4957679;28;20047;-92
2022/08/19 02:13:13;;;;;;;18.25;10.27;;;14.70;99.90;;;;;;4962596;28;20042;-94
2022/08/19 02:15:40;;;;;;;19.00;10.55;;;14.60;99.90;;;;;;4997137;28;20137;-92
2022/08/19 02:18:07;;;;;;;18.52;9.80;;;15.20;99.90;;;;;;4961320;28;20034;-92
2022/08/19 02:20:32;;;;;;;16.70;9.85;;;14.60;99.90;;;;;;4975026;28;20109;-92
2022/08/19 02:22:58;;;;;;;18.15;10.30;;;14.50;99.90;;;;;;4957828;28;20125;-92
2022/08/19 02:25:23;;;;;;;17.65;10.13;;;14.50;99.90;;;;;;4957267;28;20114;-92
2022/08/19 02:27:49;;;;;;;17.75;9.90;;;14.70;99.90;;;;;;4957901;28;20498;-92
2022/08/19 02:30:16;;;;;;;20.55;10.75;;;14.50;99.90;;;;;;4956555;28;20051;-92
2022/08/19 02:32:42;;;;;;;17.25;10.02;;;14.60;99.90;;;;;;4957291;28;20399;-93
2022/08/19 02:35:09;;;;;;;20.60;11.20;;;14.50;99.90;;;;;;4956971;28;20050;-92
2022/08/19 02:40:19;;;;;;;20.75;10.57;;;14.50;99.90;;;;;;4962983;28;20042;-92
2022/08/19 02:42:45;;;;;;;17.60;9.93;;;14.50;99.90;;;;;;4963489;28;20059;-92
2022/08/19 02:45:13;;;;;;;18.70;10.77;;;14.50;99.90;;;;;;4956947;28;20043;-92
2022/08/19 02:47:39;;;;;;;19.30;10.57;;;14.40;99.90;;;;;;4957006;28;20057;-92
2022/08/19 02:50:06;;;;;;;22.20;11.73;;;14.40;99.90;;;;;;4983579;28;20122;-92
2022/08/19 02:52:33;;;;;;;19.88;11.10;;;14.40;99.90;;;;;;4985549;28;20078;-92
2022/08/19 02:54:59;;;;;;;20.52;10.80;;;14.70;99.90;;;;;;4957478;28;20098;-91
2022/08/19 02:57:26;;;;;;;20.35;11.63;;;15.10;99.90;;;;;;4956362;28;20054;-90
2022/08/19 02:59:52;;;;;;;19.75;10.43;;;14.30;99.90;;;;;;4957292;28;20403;-92
2022/08/19 03:02:17;;;;;;;21.30;11.15;;;14.30;99.90;;;;;;4955999;28;20054;-91
2022/08/19 03:04:43;;;;;;;21.77;11.50;;;14.40;99.90;;;;;;4956555;28;20043;-93
2022/08/19 03:07:13;;;;;;;20.80;10.93;;;14.30;99.90;;;;;;4973926;28;20050;-91
2022/08/19 03:09:39;;;;;;;18.58;10.75;;;14.30;99.90;;;;;;4956476;28;20046;-92
2022/08/19 03:12:05;;;;;;;20.33;11.43;;;14.20;99.90;;;;;;4973307;28;20047;-91
2022/08/19 03:14:32;;;;;;;19.63;11.13;;;14.20;99.90;;;;;;4956054;28;20042;-92
2022/08/19 03:16:58;;;;;;;20.80;10.80;;;14.50;99.90;;;;;;4956987;28;20137;-92
2022/08/19 03:19:24;;;;;;;22.20;12.23;;;14.20;99.90;;;;;;4973249;28;20043;-92
2022/08/19 03:21:51;;;;;;;21.08;12.30;;;14.10;99.90;;;;;;4956600;28;20479;-92
2022/08/19 03:24:18;;;;;;;20.10;11.02;;;14.10;99.90;;;;;;4955940;28;20042;-91
2022/08/19 03:26:47;;;;;;;25.10;11.50;;;14.10;99.90;;;;;;4956375;28;20133;-91
2022/08/19 03:29:13;;;;;;;20.20;11.88;;;14.10;99.90;;;;;;4956889;28;20443;-92
2022/08/19 03:31:41;;;;;;;23.67;13.35;;;14.60;99.90;;;;;;4956178;28;20148;-92
2022/08/19 03:34:11;;;;;;;23.95;12.52;;;14.10;99.90;;;;;;4973965;28;20042;-92
2022/08/19 03:36:37;;;;;;;21.83;12.05;;;14.00;99.90;;;;;;4956209;28;20479;-93
2022/08/19 03:39:04;;;;;;;20.33;11.73;;;14.00;99.90;;;;;;4956117;28;20065;-92
2022/08/19 03:41:39;;;;;;;20.65;11.55;;;14.40;99.90;;;;;;4973265;28;20055;-93
2022/08/19 03:44:04;;;;;;;22.42;11.55;;;14.00;99.90;;;;;;4956398;28;20479;-92
2022/08/19 03:46:32;;;;;;;24.50;11.73;;;14.00;99.90;;;;;;4955497;28;20093;-92
2022/08/19 03:49:02;;;;;;;21.05;11.30;;;14.00;99.90;;;;;;4956201;28;20046;-92
2022/08/19 03:51:34;;;;;;;20.48;10.90;;;14.00;99.90;;;;;;4994299;28;20031;-93
2022/08/19 03:54:03;;;;;;;19.52;11.30;;;13.90;99.90;;;;;;4960788;28;20503;-92
2022/08/19 03:56:29;;;;;;;21.88;11.23;;;13.90;99.90;;;;;;4973823;28;20055;-92
2022/08/19 03:58:56;;;;;;;19.52;11.02;;;13.90;99.90;;;;;;4977337;28;20464;-93
2022/08/19 04:01:26;;;;;;;19.13;11.13;;;13.80;99.90;;;;;;4975964;28;20443;-92
2022/08/19 04:03:52;;;;;;;21.05;11.55;;;13.90;99.90;;;;;;4959046;28;20057;-92
2022/08/19 04:06:27;;;;;;;18.90;10.13;;;13.90;99.90;;;;;;4958934;28;20414;-92
2022/08/19 04:08:54;;;;;;;20.42;10.90;;;13.80;99.90;;;;;;4959590;28;20047;-92
2022/08/19 04:11:25;;;;;;;21.52;11.32;;;13.90;99.90;;;;;;4959846;28;20051;-92
2022/08/19 04:13:52;;;;;;;19.02;10.55;;;13.80;99.90;;;;;;4976374;28;20491;-92
2022/08/19 04:16:20;;;;;;;21.15;11.15;;;13.80;99.90;;;;;;4976420;28;20102;-92
2022/08/19 04:18:46;;;;;;;19.60;11.02;;;13.80;99.90;;;;;;4959801;28;20085;-92
2022/08/19 04:21:20;;;;;;;19.10;9.90;;;13.80;99.90;;;;;;4963069;28;20133;-92
2022/08/19 04:23:45;;;;;;;;;;;13.80;99.90;;;;;;4961847;28;20047;-91
2022/08/19 04:26:16;;;;;;;22.75;12.45;;;13.80;99.90;;;;;;4977406;28;19929;-93
2022/08/19 04:28:42;;;;;;;22.15;11.65;;;13.80;99.90;;;;;;4977728;28;20057;-93
2022/08/19 04:31:14;;;;;;;22.80;11.95;;;13.80;99.90;;;;;;4960470;28;20090;-92
2022/08/19 04:33:40;;;;;;;22.05;12.48;;;13.80;99.90;;;;;;4960222;28;20042;-92
2022/08/19 04:36:06;;;;;;;20.10;9.90;;;13.80;99.90;;;;;;4959698;28;20505;-91
2022/08/19 04:38:31;;;;;;;21.50;11.32;;;13.90;99.90;;;;;;4970459;28;20513;-92
2022/08/19 04:43:48;;;;;;;21.88;11.40;;;13.80;99.90;;;;;;4977140;28;20050;-92
2022/08/19 04:46:14;;;;;;;22.92;11.82;;;13.90;99.90;;;;;;4974350;28;20077;-92
2022/08/19 04:48:40;;;;;;;22.20;11.73;;;13.90;99.90;;;;;;4991870;28;20039;-92
2022/08/19 04:51:08;;;;;;;26.38;13.13;;;14.00;99.90;;;;;;4978530;28;20050;-92
2022/08/19 04:53:36;;;;;;;24.20;12.10;;;14.00;99.90;;;;;;4960952;28;20043;-90
2022/08/19 04:56:10;;;;;;;27.30;13.45;;;14.10;99.90;;;;;;4978288;28;20047;-91
2022/08/19 04:58:37;;;;;;;26.70;13.30;;;14.20;99.90;;;;;;4981143;28;20046;-91
2022/08/19 05:01:03;;;;;;;31.00;14.45;;;15.10;99.90;;;;;;4962274;28;20054;-91
2022/08/19 05:03:33;;;;;;;33.03;14.10;;;14.30;99.90;;;;;;4961533;28;20414;-92
2022/08/19 05:06:05;;;;;;;34.50;16.58;;;14.70;99.90;;;;;;4961398;28;20039;-92
2022/08/19 05:08:30;;;;;;;33.65;15.02;;;14.40;99.90;;;;;;4976014;28;20134;-94
2022/08/19 05:10:57;;;;;;;35.35;15.63;;;14.50;99.90;;;;;;4958886;28;20074;-89
2022/08/19 05:13:23;;;;;;;33.78;15.40;;;14.60;99.90;;;;;;4958093;28;20051;-87
2022/08/19 05:15:58;;;;;;;35.83;16.02;;;14.90;99.90;;;;;;4958037;28;20042;-90
2022/08/19 05:23:58;;;;;;;36.30;15.57;;;15.30;99.90;;;;;;4975202;28;20046;-94
2022/08/19 05:26:26;;;;;;;33.95;15.82;;;15.00;99.90;;;;;;4961504;28;20043;-88
2022/08/19 05:28:53;;;;;;;30.42;15.43;;;15.00;99.90;;;;;;4969421;28;20390;-94
2022/08/19 05:31:19;;;;;;;29.80;14.77;;;15.60;99.90;;;;;;4957594;28;20093;-87
2022/08/19 05:33:45;;;;;;;33.47;15.20;;;15.00;99.90;;;;;;4958003;28;20086;-89
2022/08/19 05:36:12;;;;;;;31.58;14.50;;;15.00;99.90;;;;;;4957839;28;20476;-87
2022/08/19 05:38:38;;;;;;;29.17;14.60;;;15.00;99.90;;;;;;4956714;28;20039;-88
2022/08/19 05:41:09;;;;;;;28.67;14.65;;;15.00;99.90;;;;;;4957675;28;20058;-89
2022/08/19 05:43:34;;;;;;;33.55;15.50;;;15.00;99.90;;;;;;4974524;28;20074;-88
2022/08/19 05:46:15;;;;;;;30.23;13.88;;;15.50;99.90;;;;;;4976988;28;20043;-90
2022/08/19 05:48:41;;;;;;;28.40;13.80;;;15.10;99.90;;;;;;4957677;28;20061;-85
2022/08/19 05:51:16;;;;;;;30.63;14.60;;;15.70;99.90;;;;;;4977816;28;20431;-89
2022/08/19 05:53:42;;;;;;;33.55;15.63;;;15.20;99.90;;;;;;4957131;28;20047;-89
2022/08/19 05:56:20;;;;;;;28.95;15.02;;;15.50;99.90;;;;;;4957354;28;20089;-90
2022/08/19 05:58:45;;;;;;;26.42;14.98;;;15.60;99.90;;;;;;4957200;28;20050;-91
2022/08/19 06:01:14;;;;;;;30.50;15.57;;;16.10;99.90;;;;;;4956183;28;20042;-91
2022/08/19 06:03:41;;;;;;;31.38;16.42;;;15.60;99.90;;;;;;4958549;28;20046;-92
2022/08/19 06:06:07;;;;;;;30.42;15.75;;;15.90;99.90;;;;;;4974432;28;20487;-91
2022/08/19 06:08:50;;;;;;;28.58;15.48;;;15.50;99.90;;;;;;4957504;28;20046;-92
2022/08/19 06:11:41;;;;;;;31.77;15.15;;;15.80;99.90;;;;;;4958336;28;20058;-95
2022/08/19 06:14:20;;;;;;;31.27;15.27;;;16.40;99.90;;;;;;4959406;28;20050;-92
2022/08/19 06:16:52;;;;;;;31.50;15.40;;;15.90;99.90;;;;;;4957800;28;20038;-92
2022/08/19 06:19:28;;;;;;;28.35;15.15;;;16.20;99.90;;;;;;4956668;28;20050;-90
2022/08/19 06:21:54;;;;;;;28.08;15.25;;;16.70;99.90;;;;;;4973527;28;20039;-90
2022/08/19 06:24:26;;;;;;;26.50;14.70;;;16.20;99.90;;;;;;4974261;28;20049;-91
2022/08/19 06:27:11;;;;;;;28.05;14.70;;;16.50;99.90;;;;;;4975008;28;20115;-92
2022/08/19 06:29:49;;;;;;;27.70;15.10;;;16.30;99.90;;;;;;4957476;28;20050;-93
2022/08/19 06:32:17;;;;;;;27.25;14.77;;;16.40;99.90;;;;;;4956956;28;20181;-91
2022/08/19 06:34:45;;;;;;;27.30;14.65;;;17.00;99.90;;;;;;4962239;28;20406;-92
2022/08/19 06:37:23;;;;;;;25.40;14.35;;;17.00;99.90;;;;;;4980134;28;20130;-90
2022/08/19 06:40:05;;;;;;;26.15;14.10;;;16.80;99.90;;;;;;4973789;28;20376;-86
2022/08/19 06:42:42;;;;;;;24.27;13.10;;;16.80;99.90;;;;;;4973170;28;20061;-86
2022/08/19 06:45:08;;;;;;;22.98;12.95;;;16.70;99.90;;;;;;4957519;28;20073;-86
2022/08/19 06:47:34;;;;;;;26.05;13.75;;;17.00;99.90;;;;;;4975934;28;20473;-86
2022/08/19 06:50:02;;;;;;;23.73;13.73;;;17.00;99.90;;;;;;4957264;28;20057;-86
2022/08/19 06:52:29;;;;;;;25.15;13.18;;;17.40;99.90;;;;;;4974035;28;20057;-86
2022/08/19 06:55:08;;;;;;;25.80;13.68;;;17.60;99.90;;;;;;4956785;28;20057;-86
2022/08/19 06:57:34;;;;;;;23.35;13.65;;;17.40;99.90;;;;;;4955639;28;20054;-86
2022/08/19 07:00:15;;;;;;;22.48;14.13;;;18.10;99.90;;;;;;4974122;28;20050;-86
2022/08/19 07:02:45;;;;;;;24.33;13.65;;;17.70;99.90;;;;;;4958959;28;20067;-86
2022/08/19 07:05:10;;;;;;;25.05;14.80;;;18.10;99.90;;;;;;4956786;28;20200;-86
2022/08/19 07:07:51;;;;;;;24.08;14.30;;;18.60;99.90;;;;;;4956557;28;20133;-86
2022/08/19 07:10:18;;;;;;;23.45;13.25;;;18.50;99.90;;;;;;4955875;28;20065;-86
2022/08/19 07:12:44;;;;;;;21.58;12.68;;;18.40;99.90;;;;;;4974042;28;20047;-86
2022/08/19 07:15:10;;;;;;;20.67;12.05;;;18.40;99.90;;;;;;4974123;28;20053;-86
2022/08/19 07:17:48;;;;;;;20.30;12.23;;;18.70;99.90;;;;;;4972749;28;20042;-87
2022/08/19 07:20:14;;;;;;;18.55;11.35;;;19.60;99.90;;;;;;4956438;28;20051;-86
2022/08/19 07:22:40;;;;;;;17.73;11.35;;;19.00;99.90;;;;;;4974132;28;20065;-87
2022/08/19 07:25:13;;;;;;;22.60;12.30;;;19.70;99.90;;;;;;4956078;28;20069;-90
2022/08/19 07:27:50;;;;;;;21.13;12.23;;;19.60;99.90;;;;;;4957122;28;20047;-90
2022/08/19 07:30:16;;;;;;;18.98;10.32;;;20.00;99.90;;;;;;4955954;28;20052;-90
2022/08/19 07:32:42;;;;;;;18.35;10.55;;;19.40;99.90;;;;;;4976193;28;20046;-89
2022/08/19 07:35:09;;;;;;;17.80;10.93;;;19.50;99.90;;;;;;4978098;28;20039;-88
2022/08/19 07:37:43;;;;;;;19.13;11.32;;;19.80;99.90;;;;;;4959297;28;20058;-87
2022/08/19 07:40:18;;;;;;;19.40;11.00;;;19.70;99.90;;;;;;4960651;28;20053;-87
2022/08/19 07:42:53;;;;;;;18.88;10.38;;;19.80;99.90;;;;;;4978630;28;20046;-87
2022/08/19 07:45:18;;;;;;;19.48;10.10;;;20.00;99.90;;;;;;4977215;28;20074;-87
2022/08/19 07:47:52;;;;;;;19.27;12.02;;;20.10;99.90;;;;;;4977466;28;20143;-88
2022/08/19 07:50:19;;;;;;;;;;;20.30;99.90;;;;;;4962055;28;20475;-88
2022/08/19 07:52:45;;;;;;;17.98;10.13;;;20.40;99.90;;;;;;4962664;28;19953;-88
2022/08/19 07:55:11;;;;;;;18.58;10.55;;;20.30;99.90;;;;;;4978024;28;20039;-88
2022/08/19 07:57:55;;;;;;;19.27;10.45;;;20.90;99.90;;;;;;4959999;28;20397;-88
2022/08/19 08:00:21;;;;;;;17.55;11.13;;;20.40;99.90;;;;;;4966292;28;20051;-87
2022/08/19 08:03:08;;;;;;;17.95;10.88;;;21.30;99.90;;;;;;4958999;28;20055;-87
2022/08/19 08:11:16;;;;;;;17.20;11.10;;;21.10;99.90;;;;;;4900396;29;20052;-88
2022/08/19 08:13:57;;;;;;;17.70;10.85;;;21.40;99.90;;;;;;4915671;29;20071;-88
2022/08/19 08:16:30;;;;;;;16.33;10.65;;;21.60;99.90;;;;;;4942202;28;20062;-88
2022/08/19 08:19:08;;;;;;;17.00;10.93;;;20.90;99.90;;;;;;4974867;28;20529;-88
2022/08/19 08:21:34;;;;;;;18.27;10.93;;;21.40;99.90;;;;;;4958076;28;20085;-87
2022/08/19 08:24:05;;;;;;;18.00;11.10;;;21.70;99.90;;;;;;4958918;28;20051;-87
2022/08/19 08:26:59;;;;;;;18.15;11.52;;;21.10;99.90;;;;;;4975520;28;20050;-87
2022/08/19 08:29:30;;;;;;;17.25;11.10;;;21.20;99.90;;;;;;4939732;29;20118;-87
2022/08/19 08:32:41;;;;;;;24.20;12.82;;;21.50;99.90;;;;;;4940335;29;20182;-89
2022/08/19 08:35:09;;;;;;;17.63;11.07;;;21.50;99.90;;;;;;4952015;29;20059;-87
2022/08/19 08:37:38;;;;;;;17.27;10.85;;;21.70;99.90;;;;;;4958135;29;20079;-87
2022/08/19 08:40:49;;;;;;;19.35;11.18;;;21.80;99.90;;;;;;4958273;29;20043;-89
2022/08/19 08:43:40;;;;;;;18.70;11.50;;;22.00;99.90;;;;;;4938689;29;20047;-87
2022/08/19 08:46:30;;;;;;;18.35;11.50;;;22.20;99.90;;;;;;4957055;29;20047;-86
2022/08/19 08:49:39;;;;;;;17.73;11.38;;;22.30;99.90;;;;;;4938900;29;20447;-91
2022/08/19 08:52:23;;;;;;;17.70;12.15;;;22.40;99.90;;;;;;4943140;29;20086;-91
2022/08/19 08:54:53;;;;;;;18.13;12.57;;;23.20;99.90;;;;;;4939478;29;20054;-94
2022/08/19 08:57:36;;;;;;;18.00;11.65;;;22.70;99.90;;;;;;4956261;29;20063;-88
2022/08/19 09:00:06;;;;;;;19.20;12.23;;;22.70;99.90;;;;;;4939097;29;20040;-88
2022/08/19 09:02:38;;;;;;;18.70;12.32;;;22.80;99.90;;;;;;4972430;28;20502;-88
2022/08/19 09:06:01;;;;;;;18.70;11.85;;;23.00;99.90;;;;;;4975864;28;20061;-89
2022/08/19 09:08:39;;;;;;;18.20;12.80;;;23.00;99.90;;;;;;4920038;29;20110;-89
2022/08/19 09:11:23;;;;;;;18.35;12.82;;;23.20;99.90;;;;;;4926812;28;20294;-88
2022/08/19 09:14:10;;;;;;;16.70;12.50;;;23.60;99.90;;;;;;4975506;28;20384;-88
2022/08/19 09:16:42;;;;;;;22.30;10.68;;;23.30;99.90;;;;;;4957368;28;20853;-88
2022/08/19 09:19:08;;;;;;;17.67;11.70;;;23.40;99.90;;;;;;4975298;28;20046;-88
2022/08/19 09:21:38;;;;;;;19.85;12.70;;;23.80;99.90;;;;;;4975425;28;20082;-91
2022/08/19 09:24:05;;;;;;;18.52;12.40;;;23.60;99.90;;;;;;4974810;28;20066;-94
2022/08/19 09:26:43;;;;;;;19.63;12.10;;;24.00;99.90;;;;;;4957880;28;20101;-90
2022/08/19 09:29:09;;;;;;;13.98;8.48;;;23.70;99.90;;;;;;4957911;28;20175;-89
2022/08/19 09:31:35;;;;;;;18.45;11.63;;;23.80;99.90;;;;;;4957097;28;20059;-89
2022/08/19 09:34:04;;;;;;;16.75;11.13;;;24.40;99.90;;;;;;4975034;28;20494;-89
2022/08/19 09:36:45;;;;;;;16.13;10.57;;;23.90;99.90;;;;;;4974758;28;20051;-89
2022/08/19 09:39:25;;;;;;;15.07;9.32;;;24.60;99.90;;;;;;4973928;28;20046;-89
2022/08/19 09:41:52;;;;;;;17.02;10.13;;;24.10;99.90;;;;;;4957893;28;20408;-91
2022/08/19 09:44:20;;;;;;;14.88;9.23;;;24.20;99.90;;;;;;4956649;28;20055;-89
2022/08/19 09:47:00;;;;;;;14.63;9.52;;;24.80;99.90;;;;;;4975173;28;20489;-89
2022/08/19 09:49:26;;;;;;;13.40;7.63;;;24.30;99.90;;;;;;4974534;28;20411;-89
2022/08/19 09:51:55;;;;;;;12.18;7.03;;;24.50;99.90;;;;;;4974448;28;20035;-90
2022/08/19 09:54:21;;;;;;;14.68;6.78;;;24.40;99.90;;;;;;4947600;29;20039;-91
2022/08/19 09:56:47;;;;;;;14.48;8.57;;;24.40;99.90;;;;;;4968465;28;20495;-89
2022/08/19 09:59:32;;;;;;;11.93;7.50;;;25.10;99.90;;;;;;4973963;28;20104;-87
2022/08/19 10:01:58;;;;;;;13.45;7.05;;;24.60;99.90;;;;;;4956927;28;20086;-89
2022/08/19 10:05:47;;;;;;;11.32;6.20;;;25.20;99.90;;;;;;4956424;28;20047;-89
2022/08/19 10:07:15;;;;;;;12.45;7.85;;;25.40;99.90;;;;;;4970805;28;20125;-89
2022/08/19 10:09:41;;;;;;;12.75;6.82;;;25.30;99.90;;;;;;4957725;28;20067;-87
2022/08/19 10:12:16;;;;;;;13.55;8.32;;;25.10;99.90;;;;;;4987420;28;20061;-88
2022/08/19 10:14:42;;;;;;;12.20;6.60;;;25.10;99.90;;;;;;4967672;28;20043;-86
2022/08/19 10:17:22;;;;;;;13.73;8.50;;;25.20;99.90;;;;;;4975540;28;20053;-94
2022/08/19 10:19:48;;;;;;;13.57;7.88;;;25.20;99.90;;;;;;4956901;28;20498;-88
2022/08/19 10:22:14;;;;;;;12.45;8.38;;;25.40;99.90;;;;;;4956748;28;20043;-91
2022/08/19 10:24:41;;;;;;;11.38;7.18;;;25.40;99.90;;;;;;4957352;28;20051;-91
2022/08/19 10:27:06;;;;;;;14.40;6.90;;;25.40;99.90;;;;;;4973900;28;20053;-90
2022/08/19 10:29:34;;;;;;;12.25;7.63;;;25.40;99.90;;;;;;4976028;28;20038;-90
2022/08/19 10:32:08;;;;;;;12.38;7.78;;;25.40;99.90;;;;;;4956945;28;20047;-89
2022/08/19 10:34:35;;;;;;;13.27;8.13;;;25.60;99.90;;;;;;4973044;28;20450;-89
2022/08/19 10:37:04;;;;;;;13.13;7.50;;;25.80;99.90;;;;;;4957184;28;20105;-89
2022/08/19 10:39:34;;;;;;;13.68;9.00;;;25.80;99.90;;;;;;4958603;28;20138;-89
2022/08/19 10:42:05;;;;;;;14.52;8.95;;;26.00;99.90;;;;;;4956487;28;20504;-92
2022/08/19 10:44:32;;;;;;;12.98;7.60;;;26.20;99.90;;;;;;4956736;28;20134;-89
2022/08/19 10:46:58;;;;;;;16.17;9.30;;;26.40;99.90;;;;;;4974175;28;20139;-89
2022/08/19 10:49:24;;;;;;;12.45;7.72;;;26.40;99.90;;;;;;4955753;28;20558;-89
2022/08/19 10:57:19;;;;;;;16.10;9.50;;;26.70;99.90;;;;;;4973900;28;20047;-86
2022/08/19 10:59:44;;;;;;;10.48;6.35;;;26.80;99.90;;;;;;4956993;28;20053;-86
2022/08/19 11:02:12;;;;;;;13.27;7.53;;;26.80;99.90;;;;;;4955524;28;20065;-86
2022/08/19 11:04:39;;;;;;;12.52;8.05;;;27.00;99.90;;;;;;4956300;28;20058;-86
2022/08/19 11:07:06;;;;;;;15.27;8.77;;;27.10;99.90;;;;;;4956282;28;20043;-89
2022/08/19 11:09:38;;;;;;;13.45;8.57;;;27.10;99.90;;;;;;4955420;28;20043;-87
2022/08/19 11:12:04;;;;;;;14.35;9.38;;;26.80;99.90;;;;;;4973831;28;20089;-89
2022/08/19 11:14:32;;;;;;;13.68;9.40;;;26.90;99.90;;;;;;4955946;28;20139;-89
2022/08/19 11:16:58;;;;;;;13.98;8.60;;;27.00;99.90;;;;;;4972948;28;20519;-89
2022/08/19 11:19:26;;;;;;;15.23;10.23;;;27.20;99.90;;;;;;4956132;28;20113;-89
2022/08/19 11:21:54;;;;;;;15.27;9.85;;;27.60;99.90;;;;;;4973582;28;20051;-89
2022/08/19 11:24:22;;;;;;;14.55;9.98;;;27.30;99.90;;;;;;4955412;28;20059;-91
2022/08/19 11:26:50;;;;;;;14.55;9.45;;;27.50;99.90;;;;;;4956487;28;20050;-90
2022/08/19 11:29:17;;;;;;;11.93;8.30;;;27.50;99.90;;;;;;4973600;28;20047;-90
2022/08/19 11:31:46;;;;;;;10.80;6.82;;;27.60;99.90;;;;;;4955341;28;20050;-90
2022/08/19 11:34:25;;;;;;;11.20;6.95;;;27.80;99.90;;;;;;4973736;28;20035;-90
2022/08/19 11:36:51;;;;;;;15.30;8.82;;;27.50;99.90;;;;;;4973066;28;20039;-91
2022/08/19 11:39:20;;;;;;;13.10;8.82;;;27.10;99.90;;;;;;4973416;28;20157;-90
2022/08/19 11:41:45;;;;;;;13.35;8.82;;;27.10;99.90;;;;;;4956257;28;20058;-89
2022/08/19 11:44:14;;;;;;;13.25;8.38;;;27.30;99.90;;;;;;4955606;28;20472;-88
2022/08/19 11:46:45;;;;;;;13.23;7.53;;;27.50;99.90;;;;;;5022256;23;20141;-89
2022/08/19 11:49:12;;;;;;;12.75;7.97;;;27.70;99.90;;;;;;4970830;28;20051;-87
2022/08/19 11:51:58;;;;;;;12.02;7.72;;;28.00;99.90;;;;;;4961656;28;20066;-87
2022/08/19 11:54:26;;;;;;;15.05;7.88;;;28.10;99.90;;;;;;4974430;28;20054;-92
2022/08/19 11:57:07;;;;;;;12.65;8.13;;;27.80;99.90;;;;;;4971490;28;20495;-94
2022/08/19 11:59:35;;;;;;;12.18;7.88;;;27.70;99.90;;;;;;4956201;28;20126;-94
2022/08/19 12:02:15;;;;;;;12.18;7.68;;;28.00;99.90;;;;;;4956521;28;20146;-93
2022/08/19 12:04:40;;;;;;;13.95;8.23;;;28.30;99.90;;;;;;4957010;28;20479;-94
2022/08/19 12:07:25;;;;;;;12.88;8.25;;;29.00;99.90;;;;;;4979526;28;20058;-94
2022/08/19 12:09:50;;;;;;;13.20;8.18;;;28.60;99.00;;;;;;4956558;28;20098;-94
2022/08/19 12:12:16;;;;;;;11.65;7.40;;;28.60;99.60;;;;;;4958500;28;20043;-94
2022/08/19 12:14:59;;;;;;;12.25;8.00;;;29.20;99.90;;;;;;4959278;28;20047;-93
2022/08/19 12:17:26;;;;;;;10.63;6.68;;;29.00;99.90;;;;;;4955702;28;20074;-93
2022/08/19 12:20:08;;;;;;;13.82;8.93;;;29.30;99.90;;;;;;4958087;28;20066;-90
2022/08/19 12:22:35;;;;;;;11.65;6.97;;;29.10;99.90;;;;;;4959135;28;20109;-89
2022/08/19 12:25:01;;;;;;;10.95;6.53;;;29.00;99.90;;;;;;4959953;28;20050;-86
2022/08/19 12:27:45;;;;;;;12.10;6.38;;;28.80;99.80;;;;;;4962706;28;20133;-93
2022/08/19 12:30:26;;;;;;;12.32;6.70;;;28.80;97.30;;;;;;4999380;28;20046;-95
2022/08/19 12:32:53;;;;;;;11.48;6.70;;;28.90;96.80;;;;;;4962145;28;20090;-93
2022/08/19 12:35:41;;;;;;;14.23;6.97;;;29.10;99.00;;;;;;4979122;28;20525;-93
2022/08/19 12:38:15;;;;;;;12.27;7.50;;;29.00;96.40;;;;;;4958680;28;20578;-88
2022/08/19 12:40:40;;;;;;;13.35;8.00;;;29.00;98.70;;;;;;4956028;28;20039;-89
2022/08/19 12:43:07;;;;;;;10.90;6.95;;;28.70;98.80;;;;;;4958535;28;20047;-85
2022/08/19 12:45:39;;;;;;;13.45;7.68;;;28.60;98.60;;;;;;4975811;28;20047;-88
2022/08/19 12:48:11;;;;;;;12.27;7.00;;;28.50;97.40;;;;;;4977008;28;20043;-84
2022/08/19 12:50:42;;;;;;;11.40;7.25;;;29.00;98.60;;;;;;4973394;28;20038;-87
2022/08/19 12:53:20;;;;;;;11.35;7.80;;;28.80;98.70;;;;;;4975654;28;20042;-87
2022/08/19 12:55:46;;;;;;;12.27;7.45;;;29.00;98.30;;;;;;4972845;28;20081;-86
2022/08/19 12:58:28;;;;;;;11.20;6.82;;;29.00;98.90;;;;;;4975674;28;20078;-87
2022/08/19 13:00:53;;;;;;;14.07;6.57;;;29.20;97.80;;;;;;4958326;28;20046;-87
2022/08/19 13:03:19;;;;;;;12.55;6.07;;;29.40;98.10;;;;;;4958152;28;20054;-89
2022/08/19 13:06:00;;;;;;;10.05;5.70;;;29.40;97.60;;;;;;4960193;28;20039;-91
2022/08/19 13:08:38;;;;;;;9.57;5.70;;;29.90;96.00;;;;;;4959103;28;20078;-88